sensor_id;sensor_type;location;lat;lon;timestamp;temperature;humidity
33255;DHT22;19623;52.482;9.762;2023-01-26T00:02:05;0.30;99.90
33255;DHT22;19623;52.482;9.762;2023-01-26T00:04:30;0.40;99.90
33255;DHT22;19623;52.482;9.762;2023-01-26T00:06:56;0.20;99.90
33255;DHT22;19623;52.482;9.762;2023-01-26T00:09:21;0.20;99.90
33255;DHT22;19623;52.482;9.762;2023-01-26T00:11:47;0.20;99.90
33255;DHT22;19623;52.482;9.762;2023-01-26T00:14:13;0.30;99.90
33255;DHT22;19623;52.482;9.762;2023-01-26T00:16:38;0.30;99.90
33255;DHT22;19623;52.482;9.762;2023-01-26T00:19:04;0.30;99.90
33255;DHT22;19623;52.482;9.762;2023-01-26T00:21:29;0.30;99.90
33255;DHT22;19623;52.482;9.762;2023-01-26T00:23:55;0.30;99.90
33255;DHT22;19623;52.482;9.762;2023-01-26T00:26:23;0.20;99.90
33255;DHT22;19623;52.482;9.762;2023-01-26T00:28:49;0.20;99.90
33255;DHT22;19623;52.482;9.762;2023-01-26T00:31:20;0.20;99.90
33255;DHT22;19623;52.482;9.762;2023-01-26T00:33:46;0.30;99.90
33255;DHT22;19623;52.482;9.762;2023-01-26T00:36:12;0.30;99.90
33255;DHT22;19623;52.482;9.762;2023-01-26T00:38:38;0.40;99.90
33255;DHT22;19623;52.482;9.762;2023-01-26T00:41:04;0.30;99.90
33255;DHT22;19623;52.482;9.762;2023-01-26T00:43:29;0.20;99.90
33255;DHT22;19623;52.482;9.762;2023-01-26T00:45:55;0.30;99.90
33255;DHT22;19623;52.482;9.762;2023-01-26T00:48:20;0.30;99.90
33255;DHT22;19623;52.482;9.762;2023-01-26T00:50:46;0.40;99.90
33255;DHT22;19623;52.482;9.762;2023-01-26T00:53:12;0.30;99.90
33255;DHT22;19623;52.482;9.762;2023-01-26T00:55:37;0.20;99.90
33255;DHT22;19623;52.482;9.762;2023-01-26T00:58:05;0.30;99.90
33255;DHT22;19623;52.482;9.762;2023-01-26T01:00:34;0.20;99.90
33255;DHT22;19623;52.482;9.762;2023-01-26T01:03:01;0.20;99.90
33255;DHT22;19623;52.482;9.762;2023-01-26T01:05:28;0.30;99.90
33255;DHT22;19623;52.482;9.762;2023-01-26T01:07:54;0.30;99.90
33255;DHT22;19623;52.482;9.762;2023-01-26T01:10:20;0.30;99.90
33255;DHT22;19623;52.482;9.762;2023-01-26T01:12:46;0.30;99.90
33255;DHT22;19623;52.482;9.762;2023-01-26T01:15:11;0.20;99.90
33255;DHT22;19623;52.482;9.762;2023-01-26T01:17:37;0.20;99.90
33255;DHT22;19623;52.482;9.762;2023-01-26T01:20:05;0.30;99.90
33255;DHT22;19623;52.482;9.762;2023-01-26T01:22:32;0.40;99.90
33255;DHT22;19623;52.482;9.762;2023-01-26T01:24:58;0.40;99.90
33255;DHT22;19623;52.482;9.762;2023-01-26T01:27:24;0.30;99.90
33255;DHT22;19623;52.482;9.762;2023-01-26T01:29:50;0.40;99.90
33255;DHT22;19623;52.482;9.762;2023-01-26T01:32:17;0.40;99.90
33255;DHT22;19623;52.482;9.762;2023-01-26T01:34:46;0.50;99.90
33255;DHT22;19623;52.482;9.762;2023-01-26T01:37:11;0.50;99.90
33255;DHT22;19623;52.482;9.762;2023-01-26T01:39:37;0.50;99.90
33255;DHT22;19623;52.482;9.762;2023-01-26T01:42:03;0.40;99.90
33255;DHT22;19623;52.482;9.762;2023-01-26T01:44:28;0.50;99.90
33255;DHT22;19623;52.482;9.762;2023-01-26T01:47:01;0.50;99.90
33255;DHT22;19623;52.482;9.762;2023-01-26T01:49:41;0.50;99.90
33255;DHT22;19623;52.482;9.762;2023-01-26T01:52:11;0.50;99.90
33255;DHT22;19623;52.482;9.762;2023-01-26T01:54:42;0.40;99.90
33255;DHT22;19623;52.482;9.762;2023-01-26T01:57:14;0.40;99.90
33255;DHT22;19623;52.482;9.762;2023-01-26T01:59:46;0.40;99.90
33255;DHT22;19623;52.482;9.762;2023-01-26T02:02:14;0.50;99.90
33255;DHT22;19623;52.482;9.762;2023-01-26T02:04:40;0.50;99.90
33255;DHT22;19623;52.482;9.762;2023-01-26T02:07:06;0.50;99.90
33255;DHT22;19623;52.482;9.762;2023-01-26T02:09:35;0.50;99.90
33255;DHT22;19623;52.482;9.762;2023-01-26T02:12:23;0.40;99.90
33255;DHT22;19623;52.482;9.762;2023-01-26T02:14:51;0.30;99.90
33255;DHT22;19623;52.482;9.762;2023-01-26T02:17:18;0.20;99.90
33255;DHT22;19623;52.482;9.762;2023-01-26T02:22:41;0.40;99.90
33255;DHT22;19623;52.482;9.762;2023-01-26T02:25:26;0.40;99.90
33255;DHT22;19623;52.482;9.762;2023-01-26T02:27:55;0.50;99.90
33255;DHT22;19623;52.482;9.762;2023-01-26T02:30:22;0.50;99.90
33255;DHT22;19623;52.482;9.762;2023-01-26T02:32:48;0.60;99.90
33255;DHT22;19623;52.482;9.762;2023-01-26T02:35:14;0.60;99.90
33255;DHT22;19623;52.482;9.762;2023-01-26T02:37:39;0.60;99.90
33255;DHT22;19623;52.482;9.762;2023-01-26T02:40:15;0.40;99.90
33255;DHT22;19623;52.482;9.762;2023-01-26T02:42:42;0.50;99.90
33255;DHT22;19623;52.482;9.762;2023-01-26T02:45:11;0.50;99.90
33255;DHT22;19623;52.482;9.762;2023-01-26T02:47:38;0.50;99.90
33255;DHT22;19623;52.482;9.762;2023-01-26T02:50:06;0.60;99.90
33255;DHT22;19623;52.482;9.762;2023-01-26T02:52:32;0.60;99.90
33255;DHT22;19623;52.482;9.762;2023-01-26T02:54:58;0.60;99.90
33255;DHT22;19623;52.482;9.762;2023-01-26T02:57:42;0.60;99.90
33255;DHT22;19623;52.482;9.762;2023-01-26T03:00:16;0.60;99.90
33255;DHT22;19623;52.482;9.762;2023-01-26T03:02:42;0.60;99.90
33255;DHT22;19623;52.482;9.762;2023-01-26T03:05:08;0.60;99.90
33255;DHT22;19623;52.482;9.762;2023-01-26T03:07:34;0.60;99.90
33255;DHT22;19623;52.482;9.762;2023-01-26T03:10:00;0.50;99.90
33255;DHT22;19623;52.482;9.762;2023-01-26T03:12:25;0.50;99.90
33255;DHT22;19623;52.482;9.762;2023-01-26T03:14:52;0.50;99.90
33255;DHT22;19623;52.482;9.762;2023-01-26T03:17:36;0.50;99.90
33255;DHT22;19623;52.482;9.762;2023-01-26T03:20:03;0.50;99.90
33255;DHT22;19623;52.482;9.762;2023-01-26T03:22:48;0.50;99.90
33255;DHT22;19623;52.482;9.762;2023-01-26T03:25:32;0.50;99.90
33255;DHT22;19623;52.482;9.762;2023-01-26T03:28:16;0.40;99.90
33255;DHT22;19623;52.482;9.762;2023-01-26T03:30:47;0.40;99.90
33255;DHT22;19623;52.482;9.762;2023-01-26T03:33:13;0.40;99.90
33255;DHT22;19623;52.482;9.762;2023-01-26T03:35:39;0.50;99.90
33255;DHT22;19623;52.482;9.762;2023-01-26T03:38:04;0.50;99.90
33255;DHT22;19623;52.482;9.762;2023-01-26T03:40:30;0.50;99.90
33255;DHT22;19623;52.482;9.762;2023-01-26T03:43:14;0.40;99.90
33255;DHT22;19623;52.482;9.762;2023-01-26T03:46:04;0.40;99.90
33255;DHT22;19623;52.482;9.762;2023-01-26T03:48:49;0.40;99.90
33255;DHT22;19623;52.482;9.762;2023-01-26T03:51:33;0.50;99.90
33255;DHT22;19623;52.482;9.762;2023-01-26T03:54:18;0.50;99.90
33255;DHT22;19623;52.482;9.762;2023-01-26T03:57:02;0.50;99.90
33255;DHT22;19623;52.482;9.762;2023-01-26T03:59:27;0.50;99.90
33255;DHT22;19623;52.482;9.762;2023-01-26T04:02:06;0.50;99.90
33255;DHT22;19623;52.482;9.762;2023-01-26T04:04:51;0.50;99.90
33255;DHT22;19623;52.482;9.762;2023-01-26T04:07:36;0.50;99.90
33255;DHT22;19623;52.482;9.762;2023-01-26T04:10:20;0.50;99.90
33255;DHT22;19623;52.482;9.762;2023-01-26T04:12:46;0.50;99.90
33255;DHT22;19623;52.482;9.762;2023-01-26T04:15:30;0.50;99.90
33255;DHT22;19623;52.482;9.762;2023-01-26T04:18:14;0.50;99.90
33255;DHT22;19623;52.482;9.762;2023-01-26T04:21:02;0.40;99.90
33255;DHT22;19623;52.482;9.762;2023-01-26T04:23:46;0.50;99.90
33255;DHT22;19623;52.482;9.762;2023-01-26T04:26:12;0.40;99.90
33255;DHT22;19623;52.482;9.762;2023-01-26T04:28:38;0.40;99.90
33255;DHT22;19623;52.482;9.762;2023-01-26T04:31:03;0.50;99.90
33255;DHT22;19623;52.482;9.762;2023-01-26T04:33:29;0.50;99.90
33255;DHT22;19623;52.482;9.762;2023-01-26T04:35:55;0.50;99.90
33255;DHT22;19623;52.482;9.762;2023-01-26T04:38:21;0.50;99.90
33255;DHT22;19623;52.482;9.762;2023-01-26T04:40:53;0.50;99.90
33255;DHT22;19623;52.482;9.762;2023-01-26T04:43:19;0.60;99.90
33255;DHT22;19623;52.482;9.762;2023-01-26T04:45:59;0.60;99.90
33255;DHT22;19623;52.482;9.762;2023-01-26T04:48:25;0.60;99.90
33255;DHT22;19623;52.482;9.762;2023-01-26T04:50:55;0.70;99.90
33255;DHT22;19623;52.482;9.762;2023-01-26T04:53:21;0.70;99.90
33255;DHT22;19623;52.482;9.762;2023-01-26T04:55:47;0.70;99.90
33255;DHT22;19623;52.482;9.762;2023-01-26T04:58:12;0.70;99.90
33255;DHT22;19623;52.482;9.762;2023-01-26T05:00:38;0.70;99.90
33255;DHT22;19623;52.482;9.762;2023-01-26T05:03:03;0.70;99.90
33255;DHT22;19623;52.482;9.762;2023-01-26T05:05:29;0.70;99.90
33255;DHT22;19623;52.482;9.762;2023-01-26T05:07:54;0.60;99.90
33255;DHT22;19623;52.482;9.762;2023-01-26T05:10:20;0.70;99.90
33255;DHT22;19623;52.482;9.762;2023-01-26T05:12:46;0.80;99.90
33255;DHT22;19623;52.482;9.762;2023-01-26T05:15:11;0.80;99.90
33255;DHT22;19623;52.482;9.762;2023-01-26T05:17:37;0.80;99.90
33255;DHT22;19623;52.482;9.762;2023-01-26T05:20:03;0.80;99.90
33255;DHT22;19623;52.482;9.762;2023-01-26T05:22:29;0.80;99.90
33255;DHT22;19623;52.482;9.762;2023-01-26T05:24:54;0.80;99.90
33255;DHT22;19623;52.482;9.762;2023-01-26T05:27:20;0.80;99.90
33255;DHT22;19623;52.482;9.762;2023-01-26T05:29:46;0.80;99.90
33255;DHT22;19623;52.482;9.762;2023-01-26T05:32:11;0.80;99.90
33255;DHT22;19623;52.482;9.762;2023-01-26T05:34:37;0.90;99.90
33255;DHT22;19623;52.482;9.762;2023-01-26T05:37:03;0.80;99.90
33255;DHT22;19623;52.482;9.762;2023-01-26T05:39:29;1.00;99.90
33255;DHT22;19623;52.482;9.762;2023-01-26T05:41:54;1.00;99.90
33255;DHT22;19623;52.482;9.762;2023-01-26T05:44:22;1.00;99.90
33255;DHT22;19623;52.482;9.762;2023-01-26T05:46:49;1.00;99.90
33255;DHT22;19623;52.482;9.762;2023-01-26T05:49:15;1.00;99.90
33255;DHT22;19623;52.482;9.762;2023-01-26T05:51:40;1.00;99.90
33255;DHT22;19623;52.482;9.762;2023-01-26T05:54:06;1.00;99.90
33255;DHT22;19623;52.482;9.762;2023-01-26T05:56:31;1.00;99.90
33255;DHT22;19623;52.482;9.762;2023-01-26T05:58:57;1.00;99.90
33255;DHT22;19623;52.482;9.762;2023-01-26T06:01:23;1.00;99.90
33255;DHT22;19623;52.482;9.762;2023-01-26T06:03:48;0.90;99.90
33255;DHT22;19623;52.482;9.762;2023-01-26T06:06:14;0.90;99.90
33255;DHT22;19623;52.482;9.762;2023-01-26T06:08:40;0.90;99.90
33255;DHT22;19623;52.482;9.762;2023-01-26T06:11:05;0.90;99.90
33255;DHT22;19623;52.482;9.762;2023-01-26T06:13:31;0.90;99.90
33255;DHT22;19623;52.482;9.762;2023-01-26T06:15:59;1.00;99.90
33255;DHT22;19623;52.482;9.762;2023-01-26T06:18:26;1.00;99.90
33255;DHT22;19623;52.482;9.762;2023-01-26T06:20:51;1.00;99.90
33255;DHT22;19623;52.482;9.762;2023-01-26T06:23:17;1.00;99.90
33255;DHT22;19623;52.482;9.762;2023-01-26T06:25:43;1.00;99.90
33255;DHT22;19623;52.482;9.762;2023-01-26T06:28:08;1.00;99.90
33255;DHT22;19623;52.482;9.762;2023-01-26T06:30:34;1.00;99.90
33255;DHT22;19623;52.482;9.762;2023-01-26T06:33:00;1.00;99.90
33255;DHT22;19623;52.482;9.762;2023-01-26T06:35:25;0.90;99.90
33255;DHT22;19623;52.482;9.762;2023-01-26T06:37:52;1.00;99.90
33255;DHT22;19623;52.482;9.762;2023-01-26T06:40:18;1.00;99.90
33255;DHT22;19623;52.482;9.762;2023-01-26T06:42:50;1.00;99.90
33255;DHT22;19623;52.482;9.762;2023-01-26T06:45:16;1.10;99.90
33255;DHT22;19623;52.482;9.762;2023-01-26T06:47:49;1.10;99.90
33255;DHT22;19623;52.482;9.762;2023-01-26T06:50:17;1.00;99.90
33255;DHT22;19623;52.482;9.762;2023-01-26T06:52:49;1.00;99.90
33255;DHT22;19623;52.482;9.762;2023-01-26T06:55:23;1.00;99.90
33255;DHT22;19623;52.482;9.762;2023-01-26T06:57:52;1.10;99.90
33255;DHT22;19623;52.482;9.762;2023-01-26T07:00:18;1.10;99.90
33255;DHT22;19623;52.482;9.762;2023-01-26T07:02:44;1.20;99.90
33255;DHT22;19623;52.482;9.762;2023-01-26T07:05:09;1.10;99.90
33255;DHT22;19623;52.482;9.762;2023-01-26T07:07:35;1.10;99.90
33255;DHT22;19623;52.482;9.762;2023-01-26T07:10:02;1.10;99.90
33255;DHT22;19623;52.482;9.762;2023-01-26T07:12:41;1.00;99.90
33255;DHT22;19623;52.482;9.762;2023-01-26T07:15:08;1.00;99.90
33255;DHT22;19623;52.482;9.762;2023-01-26T07:17:34;0.90;99.90
33255;DHT22;19623;52.482;9.762;2023-01-26T07:20:00;1.00;99.90
33255;DHT22;19623;52.482;9.762;2023-01-26T07:22:25;1.00;99.90
33255;DHT22;19623;52.482;9.762;2023-01-26T07:24:51;1.10;99.90
33255;DHT22;19623;52.482;9.762;2023-01-26T07:27:16;1.10;99.90
33255;DHT22;19623;52.482;9.762;2023-01-26T07:29:42;1.20;99.90
33255;DHT22;19623;52.482;9.762;2023-01-26T07:32:08;1.20;99.90
33255;DHT22;19623;52.482;9.762;2023-01-26T07:34:33;1.20;99.90
33255;DHT22;19623;52.482;9.762;2023-01-26T07:36:59;1.20;99.90
33255;DHT22;19623;52.482;9.762;2023-01-26T07:39:25;1.20;99.90
33255;DHT22;19623;52.482;9.762;2023-01-26T07:41:51;1.30;99.90
33255;DHT22;19623;52.482;9.762;2023-01-26T07:44:16;1.40;99.90
33255;DHT22;19623;52.482;9.762;2023-01-26T07:46:42;1.40;99.90
33255;DHT22;19623;52.482;9.762;2023-01-26T07:49:08;1.40;99.90
33255;DHT22;19623;52.482;9.762;2023-01-26T07:51:36;1.40;99.90
33255;DHT22;19623;52.482;9.762;2023-01-26T07:54:04;1.40;99.90
33255;DHT22;19623;52.482;9.762;2023-01-26T07:56:30;1.40;99.90
33255;DHT22;19623;52.482;9.762;2023-01-26T07:58:56;1.50;99.90
33255;DHT22;19623;52.482;9.762;2023-01-26T08:01:22;1.60;99.90
33255;DHT22;19623;52.482;9.762;2023-01-26T08:03:52;1.60;99.90
33255;DHT22;19623;52.482;9.762;2023-01-26T08:06:18;1.50;99.90
33255;DHT22;19623;52.482;9.762;2023-01-26T08:08:45;1.50;99.90
33255;DHT22;19623;52.482;9.762;2023-01-26T08:11:15;1.50;99.90
33255;DHT22;19623;52.482;9.762;2023-01-26T08:13:41;1.50;99.90
33255;DHT22;19623;52.482;9.762;2023-01-26T08:16:09;1.50;99.90
33255;DHT22;19623;52.482;9.762;2023-01-26T08:18:37;1.50;99.90
33255;DHT22;19623;52.482;9.762;2023-01-26T08:21:03;1.50;99.90
33255;DHT22;19623;52.482;9.762;2023-01-26T08:23:29;1.50;99.90
33255;DHT22;19623;52.482;9.762;2023-01-26T08:25:59;1.40;99.90
33255;DHT22;19623;52.482;9.762;2023-01-26T08:28:25;1.40;99.90
33255;DHT22;19623;52.482;9.762;2023-01-26T08:30:50;1.40;99.90
33255;DHT22;19623;52.482;9.762;2023-01-26T08:33:16;1.30;99.90
33255;DHT22;19623;52.482;9.762;2023-01-26T08:35:41;1.30;99.90
33255;DHT22;19623;52.482;9.762;2023-01-26T08:38:07;1.40;99.90
33255;DHT22;19623;52.482;9.762;2023-01-26T08:40:33;1.40;99.90
33255;DHT22;19623;52.482;9.762;2023-01-26T08:42:59;1.40;99.90
33255;DHT22;19623;52.482;9.762;2023-01-26T08:45:25;1.40;99.90
33255;DHT22;19623;52.482;9.762;2023-01-26T08:47:51;1.40;99.90
33255;DHT22;19623;52.482;9.762;2023-01-26T08:50:17;1.40;99.90
33255;DHT22;19623;52.482;9.762;2023-01-26T08:52:43;1.40;99.90
33255;DHT22;19623;52.482;9.762;2023-01-26T08:55:09;1.40;99.90
33255;DHT22;19623;52.482;9.762;2023-01-26T08:57:34;1.40;99.90
33255;DHT22;19623;52.482;9.762;2023-01-26T09:00:00;1.40;99.90
33255;DHT22;19623;52.482;9.762;2023-01-26T09:02:25;1.40;99.90
33255;DHT22;19623;52.482;9.762;2023-01-26T09:04:51;1.40;99.90
33255;DHT22;19623;52.482;9.762;2023-01-26T09:07:17;1.40;99.90
33255;DHT22;19623;52.482;9.762;2023-01-26T09:09:42;1.40;99.90
33255;DHT22;19623;52.482;9.762;2023-01-26T09:12:09;1.50;99.90
33255;DHT22;19623;52.482;9.762;2023-01-26T09:14:34;1.50;99.90
33255;DHT22;19623;52.482;9.762;2023-01-26T09:17:00;1.50;99.90
33255;DHT22;19623;52.482;9.762;2023-01-26T09:19:26;1.60;99.90
33255;DHT22;19623;52.482;9.762;2023-01-26T09:21:53;1.70;99.90
33255;DHT22;19623;52.482;9.762;2023-01-26T09:24:20;1.80;99.90
33255;DHT22;19623;52.482;9.762;2023-01-26T09:26:45;1.70;99.90
33255;DHT22;19623;52.482;9.762;2023-01-26T09:29:11;1.70;99.90
33255;DHT22;19623;52.482;9.762;2023-01-26T09:31:37;1.80;99.90
33255;DHT22;19623;52.482;9.762;2023-01-26T09:34:03;1.80;99.90
33255;DHT22;19623;52.482;9.762;2023-01-26T09:36:29;1.80;99.90
33255;DHT22;19623;52.482;9.762;2023-01-26T09:38:54;1.90;99.90
33255;DHT22;19623;52.482;9.762;2023-01-26T09:44:08;1.90;99.90
33255;DHT22;19623;52.482;9.762;2023-01-26T09:47:02;1.90;99.90
33255;DHT22;19623;52.482;9.762;2023-01-26T09:49:50;1.90;99.90
33255;DHT22;19623;52.482;9.762;2023-01-26T09:55:15;1.80;99.90
33255;DHT22;19623;52.482;9.762;2023-01-26T09:58:01;1.90;99.90
33255;DHT22;19623;52.482;9.762;2023-01-26T10:00:35;1.90;99.90
33255;DHT22;19623;52.482;9.762;2023-01-26T10:03:24;1.90;99.90
33255;DHT22;19623;52.482;9.762;2023-01-26T10:08:22;2.00;99.90
33255;DHT22;19623;52.482;9.762;2023-01-26T10:10:53;2.00;99.90
33255;DHT22;19623;52.482;9.762;2023-01-26T10:13:20;2.10;99.90
33255;DHT22;19623;52.482;9.762;2023-01-26T10:15:56;2.20;99.90
33255;DHT22;19623;52.482;9.762;2023-01-26T10:18:39;2.10;99.90
33255;DHT22;19623;52.482;9.762;2023-01-26T10:21:09;2.10;99.90
33255;DHT22;19623;52.482;9.762;2023-01-26T10:23:46;2.20;99.90
33255;DHT22;19623;52.482;9.762;2023-01-26T10:26:21;2.20;99.90
33255;DHT22;19623;52.482;9.762;2023-01-26T10:28:50;2.30;99.90
33255;DHT22;19623;52.482;9.762;2023-01-26T10:31:29;2.40;99.90
33255;DHT22;19623;52.482;9.762;2023-01-26T10:33:57;2.40;99.90
33255;DHT22;19623;52.482;9.762;2023-01-26T10:36:26;2.40;99.90
33255;DHT22;19623;52.482;9.762;2023-01-26T10:38:53;2.40;99.90
33255;DHT22;19623;52.482;9.762;2023-01-26T10:41:27;2.50;99.90
33255;DHT22;19623;52.482;9.762;2023-01-26T10:46:42;2.60;99.90
33255;DHT22;19623;52.482;9.762;2023-01-26T10:51:36;2.60;99.90
33255;DHT22;19623;52.482;9.762;2023-01-26T10:54:22;2.60;99.90
33255;DHT22;19623;52.482;9.762;2023-01-26T10:56:59;2.60;99.90
33255;DHT22;19623;52.482;9.762;2023-01-26T10:59:36;2.50;99.90
33255;DHT22;19623;52.482;9.762;2023-01-26T11:12:41;2.50;99.90
33255;DHT22;19623;52.482;9.762;2023-01-26T11:15:16;2.60;99.90
33255;DHT22;19623;52.482;9.762;2023-01-26T11:17:50;2.60;99.90
33255;DHT22;19623;52.482;9.762;2023-01-26T11:36:30;2.60;99.90
33255;DHT22;19623;52.482;9.762;2023-01-26T11:41:46;2.60;99.90
33255;DHT22;19623;52.482;9.762;2023-01-26T11:44:27;2.70;99.90
33255;DHT22;19623;52.482;9.762;2023-01-26T11:52:30;2.90;99.90
33255;DHT22;19623;52.482;9.762;2023-01-26T11:55:27;2.90;99.90
33255;DHT22;19623;52.482;9.762;2023-01-26T12:01:02;2.90;99.90
33255;DHT22;19623;52.482;9.762;2023-01-26T12:06:04;2.90;99.90
33255;DHT22;19623;52.482;9.762;2023-01-26T12:08:38;2.90;99.90
33255;DHT22;19623;52.482;9.762;2023-01-26T12:11:21;3.00;99.90
33255;DHT22;19623;52.482;9.762;2023-01-26T12:14:19;3.00;99.90
33255;DHT22;19623;52.482;9.762;2023-01-26T12:19:53;2.80;99.90
33255;DHT22;19623;52.482;9.762;2023-01-26T12:22:29;2.80;99.90
33255;DHT22;19623;52.482;9.762;2023-01-26T12:27:42;2.70;99.90
33255;DHT22;19623;52.482;9.762;2023-01-26T12:32:46;2.80;99.90
33255;DHT22;19623;52.482;9.762;2023-01-26T12:35:12;2.80;99.90
33255;DHT22;19623;52.482;9.762;2023-01-26T12:38:01;2.70;99.90
33255;DHT22;19623;52.482;9.762;2023-01-26T12:45:59;2.70;99.90
33255;DHT22;19623;52.482;9.762;2023-01-26T12:48:49;2.70;99.90
33255;DHT22;19623;52.482;9.762;2023-01-26T12:51:28;2.70;99.90
33255;DHT22;19623;52.482;9.762;2023-01-26T12:54:00;2.70;99.90
33255;DHT22;19623;52.482;9.762;2023-01-26T12:56:50;2.70;99.90
33255;DHT22;19623;52.482;9.762;2023-01-26T12:59:32;2.70;99.90
33255;DHT22;19623;52.482;9.762;2023-01-26T13:02:08;2.70;99.90
33255;DHT22;19623;52.482;9.762;2023-01-26T13:04:34;2.70;99.90
33255;DHT22;19623;52.482;9.762;2023-01-26T13:07:01;2.70;99.90
33255;DHT22;19623;52.482;9.762;2023-01-26T13:09:29;2.70;99.90
33255;DHT22;19623;52.482;9.762;2023-01-26T13:11:59;2.70;99.90
33255;DHT22;19623;52.482;9.762;2023-01-26T13:16:54;2.80;99.90
33255;DHT22;19623;52.482;9.762;2023-01-26T13:19:55;2.80;99.90
33255;DHT22;19623;52.482;9.762;2023-01-26T13:24:57;2.80;99.90
33255;DHT22;19623;52.482;9.762;2023-01-26T13:30:42;2.80;99.90
33255;DHT22;19623;52.482;9.762;2023-01-26T13:33:21;2.70;99.90
33255;DHT22;19623;52.482;9.762;2023-01-26T13:35:50;2.70;99.90
33255;DHT22;19623;52.482;9.762;2023-01-26T13:38:21;2.80;99.90
33255;DHT22;19623;52.482;9.762;2023-01-26T13:40:49;2.70;99.90
33255;DHT22;19623;52.482;9.762;2023-01-26T13:46:09;2.80;99.90
33255;DHT22;19623;52.482;9.762;2023-01-26T13:48:47;2.80;99.90
33255;DHT22;19623;52.482;9.762;2023-01-26T13:51:16;2.80;99.90
33255;DHT22;19623;52.482;9.762;2023-01-26T13:53:47;2.70;99.90
33255;DHT22;19623;52.482;9.762;2023-01-26T13:58:50;2.70;99.90
33255;DHT22;19623;52.482;9.762;2023-01-26T14:01:16;2.60;99.90
33255;DHT22;19623;52.482;9.762;2023-01-26T14:03:43;2.60;99.90
33255;DHT22;19623;52.482;9.762;2023-01-26T14:06:15;2.60;99.90
33255;DHT22;19623;52.482;9.762;2023-01-26T14:08:51;2.60;99.90
33255;DHT22;19623;52.482;9.762;2023-01-26T14:11:20;2.50;99.90
33255;DHT22;19623;52.482;9.762;2023-01-26T14:13:51;2.60;99.90
33255;DHT22;19623;52.482;9.762;2023-01-26T14:16:24;2.60;99.90
33255;DHT22;19623;52.482;9.762;2023-01-26T14:19:23;2.50;99.90
33255;DHT22;19623;52.482;9.762;2023-01-26T14:21:53;2.60;99.90
33255;DHT22;19623;52.482;9.762;2023-01-26T14:24:26;2.50;99.90
33255;DHT22;19623;52.482;9.762;2023-01-26T14:26:55;2.60;99.90
33255;DHT22;19623;52.482;9.762;2023-01-26T14:29:24;2.60;99.90
33255;DHT22;19623;52.482;9.762;2023-01-26T14:31:55;2.50;99.90
33255;DHT22;19623;52.482;9.762;2023-01-26T14:34:25;2.50;99.90
33255;DHT22;19623;52.482;9.762;2023-01-26T14:37:13;2.40;99.90
33255;DHT22;19623;52.482;9.762;2023-01-26T14:39:40;2.40;99.90
33255;DHT22;19623;52.482;9.762;2023-01-26T14:42:19;2.50;99.90
33255;DHT22;19623;52.482;9.762;2023-01-26T14:44:45;2.60;99.90
33255;DHT22;19623;52.482;9.762;2023-01-26T14:47:30;2.60;99.90
33255;DHT22;19623;52.482;9.762;2023-01-26T14:50:12;2.60;99.90
33255;DHT22;19623;52.482;9.762;2023-01-26T14:52:42;2.60;99.90
33255;DHT22;19623;52.482;9.762;2023-01-26T14:55:25;2.60;99.90
33255;DHT22;19623;52.482;9.762;2023-01-26T14:57:53;2.60;99.90
33255;DHT22;19623;52.482;9.762;2023-01-26T15:00:28;2.50;99.90
33255;DHT22;19623;52.482;9.762;2023-01-26T15:02:56;2.60;99.90
33255;DHT22;19623;52.482;9.762;2023-01-26T15:05:34;2.60;99.90
33255;DHT22;19623;52.482;9.762;2023-01-26T15:08:03;2.60;99.90
33255;DHT22;19623;52.482;9.762;2023-01-26T15:10:36;2.60;99.90
33255;DHT22;19623;52.482;9.762;2023-01-26T15:15:30;2.60;99.90
33255;DHT22;19623;52.482;9.762;2023-01-26T15:25:42;2.60;99.90
33255;DHT22;19623;52.482;9.762;2023-01-26T15:28:16;2.50;99.90
33255;DHT22;19623;52.482;9.762;2023-01-26T15:30:47;2.50;99.90
33255;DHT22;19623;52.482;9.762;2023-01-26T15:33:56;2.50;99.90
33255;DHT22;19623;52.482;9.762;2023-01-26T15:36:02;2.50;99.90
33255;DHT22;19623;52.482;9.762;2023-01-26T15:38:28;2.40;99.90
33255;DHT22;19623;52.482;9.762;2023-01-26T15:40:54;2.40;99.90
33255;DHT22;19623;52.482;9.762;2023-01-26T15:43:20;2.40;99.90
33255;DHT22;19623;52.482;9.762;2023-01-26T15:45:57;2.40;99.90
33255;DHT22;19623;52.482;9.762;2023-01-26T15:48:23;2.50;99.90
33255;DHT22;19623;52.482;9.762;2023-01-26T15:50:49;2.50;99.90
33255;DHT22;19623;52.482;9.762;2023-01-26T15:53:17;2.50;99.90
33255;DHT22;19623;52.482;9.762;2023-01-26T15:55:46;2.50;99.90
33255;DHT22;19623;52.482;9.762;2023-01-26T15:58:23;2.50;99.90
33255;DHT22;19623;52.482;9.762;2023-01-26T16:00:50;2.50;99.90
33255;DHT22;19623;52.482;9.762;2023-01-26T16:03:18;2.50;99.90
33255;DHT22;19623;52.482;9.762;2023-01-26T16:05:44;2.50;99.90
33255;DHT22;19623;52.482;9.762;2023-01-26T16:08:17;2.50;99.90
33255;DHT22;19623;52.482;9.762;2023-01-26T16:10:43;2.40;99.90
33255;DHT22;19623;52.482;9.762;2023-01-26T16:13:11;2.40;99.90
33255;DHT22;19623;52.482;9.762;2023-01-26T16:15:41;2.40;99.90
33255;DHT22;19623;52.482;9.762;2023-01-26T16:18:08;2.40;99.90
33255;DHT22;19623;52.482;9.762;2023-01-26T16:20:35;2.40;99.90
33255;DHT22;19623;52.482;9.762;2023-01-26T16:23:01;2.40;99.90
33255;DHT22;19623;52.482;9.762;2023-01-26T16:25:29;2.30;99.90
33255;DHT22;19623;52.482;9.762;2023-01-26T16:27:57;2.30;99.90
33255;DHT22;19623;52.482;9.762;2023-01-26T16:30:23;2.20;99.90
33255;DHT22;19623;52.482;9.762;2023-01-26T16:32:49;2.20;99.90
33255;DHT22;19623;52.482;9.762;2023-01-26T16:35:19;2.20;99.90
33255;DHT22;19623;52.482;9.762;2023-01-26T16:37:45;2.20;99.90
33255;DHT22;19623;52.482;9.762;2023-01-26T16:40:13;2.30;99.90
33255;DHT22;19623;52.482;9.762;2023-01-26T16:42:41;2.30;99.90
33255;DHT22;19623;52.482;9.762;2023-01-26T16:45:24;2.30;99.90
33255;DHT22;19623;52.482;9.762;2023-01-26T16:47:55;2.40;99.90
33255;DHT22;19623;52.482;9.762;2023-01-26T16:50:22;2.40;99.90
33255;DHT22;19623;52.482;9.762;2023-01-26T16:52:48;2.40;99.90
33255;DHT22;19623;52.482;9.762;2023-01-26T16:55:14;2.40;99.90
33255;DHT22;19623;52.482;9.762;2023-01-26T16:57:41;2.50;99.90
33255;DHT22;19623;52.482;9.762;2023-01-26T17:00:18;2.40;99.90
33255;DHT22;19623;52.482;9.762;2023-01-26T17:02:49;2.50;99.90
33255;DHT22;19623;52.482;9.762;2023-01-26T17:05:18;2.50;99.90
33255;DHT22;19623;52.482;9.762;2023-01-26T17:07:44;2.50;99.90
33255;DHT22;19623;52.482;9.762;2023-01-26T17:10:11;2.60;99.90
33255;DHT22;19623;52.482;9.762;2023-01-26T17:12:37;2.60;99.90
33255;DHT22;19623;52.482;9.762;2023-01-26T17:15:09;2.60;99.90
33255;DHT22;19623;52.482;9.762;2023-01-26T17:17:35;2.60;99.90
33255;DHT22;19623;52.482;9.762;2023-01-26T17:20:01;2.60;99.90
33255;DHT22;19623;52.482;9.762;2023-01-26T17:22:28;2.60;99.90
33255;DHT22;19623;52.482;9.762;2023-01-26T17:24:57;2.70;99.90
33255;DHT22;19623;52.482;9.762;2023-01-26T17:27:23;2.70;99.90
33255;DHT22;19623;52.482;9.762;2023-01-26T17:29:48;2.70;99.90
33255;DHT22;19623;52.482;9.762;2023-01-26T17:32:15;2.70;99.90
33255;DHT22;19623;52.482;9.762;2023-01-26T17:34:48;2.80;99.90
33255;DHT22;19623;52.482;9.762;2023-01-26T17:37:14;2.70;99.90